sensor_id;sensor_type;location;lat;lon;timestamp;temperature;humidity
15036;DHT22;7615;48.574;13.474;2023-04-08T00:02:03;7.50;99.90
15036;DHT22;7615;48.574;13.474;2023-04-08T00:04:30;7.40;99.90
15036;DHT22;7615;48.574;13.474;2023-04-08T00:06:58;7.50;99.90
15036;DHT22;7615;48.574;13.474;2023-04-08T00:09:25;7.30;99.90
15036;DHT22;7615;48.574;13.474;2023-04-08T00:11:52;7.20;99.90
15036;DHT22;7615;48.574;13.474;2023-04-08T00:14:21;7.30;99.90
15036;DHT22;7615;48.574;13.474;2023-04-08T00:16:50;7.30;99.90
15036;DHT22;7615;48.574;13.474;2023-04-08T00:19:17;7.30;99.90
15036;DHT22;7615;48.574;13.474;2023-04-08T00:21:44;7.40;99.90
15036;DHT22;7615;48.574;13.474;2023-04-08T00:24:12;7.40;99.90
15036;DHT22;7615;48.574;13.474;2023-04-08T00:26:39;7.40;99.90
15036;DHT22;7615;48.574;13.474;2023-04-08T00:29:06;7.50;99.90
15036;DHT22;7615;48.574;13.474;2023-04-08T00:31:33;7.40;99.90
15036;DHT22;7615;48.574;13.474;2023-04-08T00:34:03;7.50;99.90
15036;DHT22;7615;48.574;13.474;2023-04-08T00:36:30;7.40;99.90
15036;DHT22;7615;48.574;13.474;2023-04-08T00:38:57;7.20;99.90
15036;DHT22;7615;48.574;13.474;2023-04-08T00:41:24;7.10;99.90
15036;DHT22;7615;48.574;13.474;2023-04-08T00:43:52;7.10;99.90
15036;DHT22;7615;48.574;13.474;2023-04-08T00:46:20;7.10;99.90
15036;DHT22;7615;48.574;13.474;2023-04-08T00:48:48;7.00;99.90
15036;DHT22;7615;48.574;13.474;2023-04-08T00:51:16;7.00;99.90
15036;DHT22;7615;48.574;13.474;2023-04-08T00:53:44;7.00;99.90
15036;DHT22;7615;48.574;13.474;2023-04-08T00:56:11;7.10;99.90
15036;DHT22;7615;48.574;13.474;2023-04-08T00:58:38;7.30;99.90
15036;DHT22;7615;48.574;13.474;2023-04-08T01:01:12;7.30;99.90
15036;DHT22;7615;48.574;13.474;2023-04-08T01:03:49;7.30;99.90
15036;DHT22;7615;48.574;13.474;2023-04-08T01:06:28;7.40;99.90
15036;DHT22;7615;48.574;13.474;2023-04-08T01:08:59;7.30;99.90
15036;DHT22;7615;48.574;13.474;2023-04-08T01:11:29;7.30;99.90
15036;DHT22;7615;48.574;13.474;2023-04-08T01:13:59;7.10;99.90
15036;DHT22;7615;48.574;13.474;2023-04-08T01:16:28;7.00;99.90
15036;DHT22;7615;48.574;13.474;2023-04-08T01:18:55;7.10;99.90
15036;DHT22;7615;48.574;13.474;2023-04-08T01:21:25;7.10;99.90
15036;DHT22;7615;48.574;13.474;2023-04-08T01:24:00;7.00;99.90
15036;DHT22;7615;48.574;13.474;2023-04-08T01:26:32;7.00;99.90
15036;DHT22;7615;48.574;13.474;2023-04-08T01:29:00;7.00;99.90
15036;DHT22;7615;48.574;13.474;2023-04-08T01:31:29;7.00;99.90
15036;DHT22;7615;48.574;13.474;2023-04-08T01:33:59;7.00;99.90
15036;DHT22;7615;48.574;13.474;2023-04-08T01:36:28;7.10;99.90
15036;DHT22;7615;48.574;13.474;2023-04-08T01:38:57;7.10;99.90
15036;DHT22;7615;48.574;13.474;2023-04-08T01:41:25;7.20;99.90
15036;DHT22;7615;48.574;13.474;2023-04-08T01:43:57;7.10;99.90
15036;DHT22;7615;48.574;13.474;2023-04-08T01:46:25;7.00;99.90
15036;DHT22;7615;48.574;13.474;2023-04-08T01:48:53;6.90;99.90
15036;DHT22;7615;48.574;13.474;2023-04-08T01:51:21;6.80;99.90
15036;DHT22;7615;48.574;13.474;2023-04-08T01:53:49;6.80;99.90
15036;DHT22;7615;48.574;13.474;2023-04-08T01:56:16;6.70;99.90
15036;DHT22;7615;48.574;13.474;2023-04-08T01:58:50;6.60;99.90
15036;DHT22;7615;48.574;13.474;2023-04-08T02:01:21;6.70;99.90
15036;DHT22;7615;48.574;13.474;2023-04-08T02:03:50;6.80;99.90
15036;DHT22;7615;48.574;13.474;2023-04-08T02:06:20;6.80;99.90
15036;DHT22;7615;48.574;13.474;2023-04-08T02:08:49;6.80;99.90
15036;DHT22;7615;48.574;13.474;2023-04-08T02:11:17;6.90;99.90
15036;DHT22;7615;48.574;13.474;2023-04-08T02:13:44;7.00;99.90
15036;DHT22;7615;48.574;13.474;2023-04-08T02:16:15;7.00;99.90
15036;DHT22;7615;48.574;13.474;2023-04-08T02:18:54;7.10;99.90
15036;DHT22;7615;48.574;13.474;2023-04-08T02:21:29;7.10;99.90
15036;DHT22;7615;48.574;13.474;2023-04-08T02:24:03;7.10;99.90
15036;DHT22;7615;48.574;13.474;2023-04-08T02:26:33;7.00;99.90
15036;DHT22;7615;48.574;13.474;2023-04-08T02:29:03;7.00;99.90
15036;DHT22;7615;48.574;13.474;2023-04-08T02:31:32;7.10;99.90
15036;DHT22;7615;48.574;13.474;2023-04-08T02:34:01;6.90;99.90
15036;DHT22;7615;48.574;13.474;2023-04-08T02:36:31;6.80;99.90
15036;DHT22;7615;48.574;13.474;2023-04-08T02:38:59;6.80;99.90
15036;DHT22;7615;48.574;13.474;2023-04-08T02:41:27;6.70;99.90
15036;DHT22;7615;48.574;13.474;2023-04-08T02:43:54;6.60;99.90
15036;DHT22;7615;48.574;13.474;2023-04-08T02:46:22;6.60;99.90
15036;DHT22;7615;48.574;13.474;2023-04-08T02:48:49;6.60;99.90
15036;DHT22;7615;48.574;13.474;2023-04-08T02:51:18;6.60;99.90
15036;DHT22;7615;48.574;13.474;2023-04-08T02:53:46;6.70;99.90
15036;DHT22;7615;48.574;13.474;2023-04-08T02:56:13;6.70;99.90
15036;DHT22;7615;48.574;13.474;2023-04-08T02:58:40;6.60;99.90
15036;DHT22;7615;48.574;13.474;2023-04-08T03:01:07;6.70;99.90
15036;DHT22;7615;48.574;13.474;2023-04-08T03:03:35;6.80;99.90
15036;DHT22;7615;48.574;13.474;2023-04-08T03:06:02;6.90;99.90
15036;DHT22;7615;48.574;13.474;2023-04-08T03:08:31;7.00;99.90
15036;DHT22;7615;48.574;13.474;2023-04-08T03:10:59;6.90;99.90
15036;DHT22;7615;48.574;13.474;2023-04-08T03:13:26;7.00;99.90
15036;DHT22;7615;48.574;13.474;2023-04-08T03:15:54;7.00;99.90
15036;DHT22;7615;48.574;13.474;2023-04-08T03:18:21;6.90;99.90
15036;DHT22;7615;48.574;13.474;2023-04-08T03:20:48;6.80;99.90
15036;DHT22;7615;48.574;13.474;2023-04-08T03:23:16;6.70;99.90
15036;DHT22;7615;48.574;13.474;2023-04-08T03:25:44;6.70;99.90
15036;DHT22;7615;48.574;13.474;2023-04-08T03:28:11;6.70;99.90
15036;DHT22;7615;48.574;13.474;2023-04-08T03:30:38;6.60;99.90
15036;DHT22;7615;48.574;13.474;2023-04-08T03:33:06;6.70;99.90
15036;DHT22;7615;48.574;13.474;2023-04-08T03:35:33;6.70;99.90
15036;DHT22;7615;48.574;13.474;2023-04-08T03:38:00;6.70;99.90
15036;DHT22;7615;48.574;13.474;2023-04-08T03:40:27;6.70;99.90
15036;DHT22;7615;48.574;13.474;2023-04-08T03:42:56;6.60;99.90
15036;DHT22;7615;48.574;13.474;2023-04-08T03:45:23;6.70;99.90
15036;DHT22;7615;48.574;13.474;2023-04-08T03:47:51;6.70;99.90
15036;DHT22;7615;48.574;13.474;2023-04-08T03:50:18;6.70;99.90
15036;DHT22;7615;48.574;13.474;2023-04-08T03:52:45;6.70;99.90
15036;DHT22;7615;48.574;13.474;2023-04-08T03:55:13;6.60;99.90
15036;DHT22;7615;48.574;13.474;2023-04-08T03:57:41;6.50;99.90
15036;DHT22;7615;48.574;13.474;2023-04-08T04:00:12;6.50;99.90
15036;DHT22;7615;48.574;13.474;2023-04-08T04:02:39;6.40;99.90
15036;DHT22;7615;48.574;13.474;2023-04-08T04:05:07;6.50;99.90
15036;DHT22;7615;48.574;13.474;2023-04-08T04:07:34;6.60;99.90
15036;DHT22;7615;48.574;13.474;2023-04-08T04:10:01;6.50;99.90
15036;DHT22;7615;48.574;13.474;2023-04-08T04:12:28;6.50;99.90
15036;DHT22;7615;48.574;13.474;2023-04-08T04:14:56;6.60;99.90
15036;DHT22;7615;48.574;13.474;2023-04-08T04:17:24;6.60;99.90
15036;DHT22;7615;48.574;13.474;2023-04-08T04:19:52;6.50;99.90
15036;DHT22;7615;48.574;13.474;2023-04-08T04:22:19;6.30;99.90
15036;DHT22;7615;48.574;13.474;2023-04-08T04:24:46;6.30;99.90
15036;DHT22;7615;48.574;13.474;2023-04-08T04:27:14;6.30;99.90
15036;DHT22;7615;48.574;13.474;2023-04-08T04:29:43;6.30;99.90
15036;DHT22;7615;48.574;13.474;2023-04-08T04:32:10;6.40;99.90
15036;DHT22;7615;48.574;13.474;2023-04-08T04:34:39;6.50;99.90
15036;DHT22;7615;48.574;13.474;2023-04-08T04:37:06;6.50;99.90
15036;DHT22;7615;48.574;13.474;2023-04-08T04:39:33;6.40;99.90
15036;DHT22;7615;48.574;13.474;2023-04-08T04:42:00;6.50;99.90
15036;DHT22;7615;48.574;13.474;2023-04-08T04:44:28;6.50;99.90
15036;DHT22;7615;48.574;13.474;2023-04-08T04:46:55;6.50;99.90
15036;DHT22;7615;48.574;13.474;2023-04-08T04:49:22;6.60;99.90
15036;DHT22;7615;48.574;13.474;2023-04-08T04:51:50;6.60;99.90
15036;DHT22;7615;48.574;13.474;2023-04-08T04:54:18;6.60;99.90
15036;DHT22;7615;48.574;13.474;2023-04-08T04:56:45;6.60;99.90
15036;DHT22;7615;48.574;13.474;2023-04-08T04:59:12;6.60;99.90
15036;DHT22;7615;48.574;13.474;2023-04-08T05:01:39;6.60;99.90
15036;DHT22;7615;48.574;13.474;2023-04-08T05:04:07;6.60;99.90
15036;DHT22;7615;48.574;13.474;2023-04-08T05:06:34;6.50;99.90
15036;DHT22;7615;48.574;13.474;2023-04-08T05:09:02;6.50;99.90
15036;DHT22;7615;48.574;13.474;2023-04-08T05:11:29;6.40;99.90
15036;DHT22;7615;48.574;13.474;2023-04-08T05:13:56;6.40;99.90
15036;DHT22;7615;48.574;13.474;2023-04-08T05:16:24;6.30;99.90
15036;DHT22;7615;48.574;13.474;2023-04-08T05:18:51;6.20;99.90
15036;DHT22;7615;48.574;13.474;2023-04-08T05:21:18;6.10;99.90
15036;DHT22;7615;48.574;13.474;2023-04-08T05:23:46;6.00;99.90
15036;DHT22;7615;48.574;13.474;2023-04-08T05:26:14;5.80;99.90
15036;DHT22;7615;48.574;13.474;2023-04-08T05:28:42;5.80;99.90
15036;DHT22;7615;48.574;13.474;2023-04-08T05:31:11;5.70;99.90
15036;DHT22;7615;48.574;13.474;2023-04-08T05:33:38;5.60;99.90
15036;DHT22;7615;48.574;13.474;2023-04-08T05:36:05;5.60;99.90
15036;DHT22;7615;48.574;13.474;2023-04-08T05:38:33;5.60;99.90
15036;DHT22;7615;48.574;13.474;2023-04-08T05:41:01;5.60;99.90
15036;DHT22;7615;48.574;13.474;2023-04-08T05:43:50;5.70;99.90
15036;DHT22;7615;48.574;13.474;2023-04-08T05:46:17;5.80;99.90
15036;DHT22;7615;48.574;13.474;2023-04-08T05:48:45;5.90;99.90
15036;DHT22;7615;48.574;13.474;2023-04-08T05:51:19;5.90;99.90
15036;DHT22;7615;48.574;13.474;2023-04-08T05:53:46;5.90;99.90
15036;DHT22;7615;48.574;13.474;2023-04-08T05:56:14;5.90;99.90
15036;DHT22;7615;48.574;13.474;2023-04-08T05:58:41;5.90;99.90
15036;DHT22;7615;48.574;13.474;2023-04-08T06:01:10;5.80;99.90
15036;DHT22;7615;48.574;13.474;2023-04-08T06:03:37;5.80;99.90
15036;DHT22;7615;48.574;13.474;2023-04-08T06:06:08;5.80;99.90
15036;DHT22;7615;48.574;13.474;2023-04-08T06:08:36;5.80;99.90
15036;DHT22;7615;48.574;13.474;2023-04-08T06:11:03;5.90;99.90
15036;DHT22;7615;48.574;13.474;2023-04-08T06:13:31;5.90;99.90
15036;DHT22;7615;48.574;13.474;2023-04-08T06:16:04;5.80;99.90
15036;DHT22;7615;48.574;13.474;2023-04-08T06:18:36;5.80;99.90
15036;DHT22;7615;48.574;13.474;2023-04-08T06:21:04;5.70;99.90
15036;DHT22;7615;48.574;13.474;2023-04-08T06:23:31;5.60;99.90
15036;DHT22;7615;48.574;13.474;2023-04-08T06:25:59;5.50;99.90
15036;DHT22;7615;48.574;13.474;2023-04-08T06:28:28;5.50;99.90
15036;DHT22;7615;48.574;13.474;2023-04-08T06:30:55;5.50;99.90
15036;DHT22;7615;48.574;13.474;2023-04-08T06:33:23;5.60;99.90
15036;DHT22;7615;48.574;13.474;2023-04-08T06:35:56;5.60;99.90
15036;DHT22;7615;48.574;13.474;2023-04-08T06:38:26;5.70;99.90
15036;DHT22;7615;48.574;13.474;2023-04-08T06:40:54;5.80;99.90
15036;DHT22;7615;48.574;13.474;2023-04-08T06:43:21;5.80;99.90
15036;DHT22;7615;48.574;13.474;2023-04-08T06:45:49;5.80;99.90
15036;DHT22;7615;48.574;13.474;2023-04-08T06:48:16;5.80;99.90
15036;DHT22;7615;48.574;13.474;2023-04-08T06:50:43;5.80;99.90
15036;DHT22;7615;48.574;13.474;2023-04-08T06:53:12;5.90;99.90
15036;DHT22;7615;48.574;13.474;2023-04-08T06:55:40;5.90;99.90
15036;DHT22;7615;48.574;13.474;2023-04-08T06:58:32;5.80;99.90
15036;DHT22;7615;48.574;13.474;2023-04-08T07:01:00;5.70;99.90
15036;DHT22;7615;48.574;13.474;2023-04-08T07:03:28;5.50;99.90
15036;DHT22;7615;48.574;13.474;2023-04-08T07:05:55;5.50;99.90
15036;DHT22;7615;48.574;13.474;2023-04-08T07:08:24;5.60;99.90
15036;DHT22;7615;48.574;13.474;2023-04-08T07:10:52;5.40;99.90
15036;DHT22;7615;48.574;13.474;2023-04-08T07:13:19;5.40;99.90
15036;DHT22;7615;48.574;13.474;2023-04-08T07:15:46;5.50;99.90
15036;DHT22;7615;48.574;13.474;2023-04-08T07:18:13;5.70;99.90
15036;DHT22;7615;48.574;13.474;2023-04-08T07:20:40;5.60;99.90
15036;DHT22;7615;48.574;13.474;2023-04-08T07:23:08;5.50;99.90
15036;DHT22;7615;48.574;13.474;2023-04-08T07:25:36;5.40;99.90
15036;DHT22;7615;48.574;13.474;2023-04-08T07:28:04;5.50;99.90
15036;DHT22;7615;48.574;13.474;2023-04-08T07:30:31;5.60;99.90
15036;DHT22;7615;48.574;13.474;2023-04-08T07:32:58;5.60;99.90
15036;DHT22;7615;48.574;13.474;2023-04-08T07:35:25;5.70;99.90
15036;DHT22;7615;48.574;13.474;2023-04-08T07:37:53;5.80;99.90
15036;DHT22;7615;48.574;13.474;2023-04-08T07:40:20;5.80;99.90
15036;DHT22;7615;48.574;13.474;2023-04-08T07:42:49;5.90;99.90
15036;DHT22;7615;48.574;13.474;2023-04-08T07:45:16;5.90;99.90
15036;DHT22;7615;48.574;13.474;2023-04-08T07:47:43;5.80;99.90
15036;DHT22;7615;48.574;13.474;2023-04-08T07:50:10;5.80;99.90
15036;DHT22;7615;48.574;13.474;2023-04-08T07:52:38;5.90;99.90
15036;DHT22;7615;48.574;13.474;2023-04-08T07:55:06;5.90;99.90
15036;DHT22;7615;48.574;13.474;2023-04-08T07:57:34;5.80;99.90
15036;DHT22;7615;48.574;13.474;2023-04-08T08:00:02;5.90;99.90
15036;DHT22;7615;48.574;13.474;2023-04-08T08:02:43;5.90;99.90
15036;DHT22;7615;48.574;13.474;2023-04-08T08:05:10;5.90;99.90
15036;DHT22;7615;48.574;13.474;2023-04-08T08:07:37;5.90;99.90
15036;DHT22;7615;48.574;13.474;2023-04-08T08:10:05;5.90;99.90
15036;DHT22;7615;48.574;13.474;2023-04-08T08:12:33;5.90;99.90
15036;DHT22;7615;48.574;13.474;2023-04-08T08:15:01;5.90;99.90
15036;DHT22;7615;48.574;13.474;2023-04-08T08:17:29;5.90;99.90
15036;DHT22;7615;48.574;13.474;2023-04-08T08:19:58;6.00;99.90
15036;DHT22;7615;48.574;13.474;2023-04-08T08:22:25;5.90;99.90
15036;DHT22;7615;48.574;13.474;2023-04-08T08:24:56;5.90;99.90
15036;DHT22;7615;48.574;13.474;2023-04-08T08:27:24;5.90;99.90
15036;DHT22;7615;48.574;13.474;2023-04-08T08:29:51;5.90;99.90
15036;DHT22;7615;48.574;13.474;2023-04-08T08:32:23;5.80;99.90
15036;DHT22;7615;48.574;13.474;2023-04-08T08:34:50;5.80;99.90
15036;DHT22;7615;48.574;13.474;2023-04-08T08:37:17;5.80;99.90
15036;DHT22;7615;48.574;13.474;2023-04-08T08:39:44;5.80;99.90
15036;DHT22;7615;48.574;13.474;2023-04-08T08:42:18;5.80;99.90
15036;DHT22;7615;48.574;13.474;2023-04-08T08:44:47;5.80;99.90
15036;DHT22;7615;48.574;13.474;2023-04-08T08:47:15;5.90;99.90
15036;DHT22;7615;48.574;13.474;2023-04-08T08:49:44;5.80;99.90
15036;DHT22;7615;48.574;13.474;2023-04-08T08:52:15;5.90;99.90
15036;DHT22;7615;48.574;13.474;2023-04-08T08:54:43;6.00;99.90
15036;DHT22;7615;48.574;13.474;2023-04-08T08:57:16;6.10;99.90
15036;DHT22;7615;48.574;13.474;2023-04-08T08:59:45;6.20;99.90
15036;DHT22;7615;48.574;13.474;2023-04-08T09:02:26;6.20;99.90
15036;DHT22;7615;48.574;13.474;2023-04-08T09:05:00;6.10;99.90
15036;DHT22;7615;48.574;13.474;2023-04-08T09:07:28;6.10;99.90
15036;DHT22;7615;48.574;13.474;2023-04-08T09:09:57;6.20;99.90
15036;DHT22;7615;48.574;13.474;2023-04-08T09:12:25;6.20;99.90
15036;DHT22;7615;48.574;13.474;2023-04-08T09:15:03;6.20;99.90
15036;DHT22;7615;48.574;13.474;2023-04-08T09:17:31;6.30;99.90
15036;DHT22;7615;48.574;13.474;2023-04-08T09:20:08;6.40;99.90
15036;DHT22;7615;48.574;13.474;2023-04-08T09:22:57;6.40;99.90
15036;DHT22;7615;48.574;13.474;2023-04-08T09:25:25;6.50;99.90
15036;DHT22;7615;48.574;13.474;2023-04-08T09:27:52;6.50;99.90
15036;DHT22;7615;48.574;13.474;2023-04-08T09:30:21;6.50;99.90
15036;DHT22;7615;48.574;13.474;2023-04-08T09:32:50;6.60;99.90
15036;DHT22;7615;48.574;13.474;2023-04-08T09:35:19;6.50;99.90
15036;DHT22;7615;48.574;13.474;2023-04-08T09:37:47;6.50;99.90
15036;DHT22;7615;48.574;13.474;2023-04-08T09:40:15;6.60;99.90
15036;DHT22;7615;48.574;13.474;2023-04-08T09:42:44;6.60;99.90
15036;DHT22;7615;48.574;13.474;2023-04-08T09:45:14;6.60;99.90
15036;DHT22;7615;48.574;13.474;2023-04-08T09:47:53;6.70;99.90
15036;DHT22;7615;48.574;13.474;2023-04-08T09:50:31;6.70;99.90
15036;DHT22;7615;48.574;13.474;2023-04-08T09:53:04;6.60;99.90
15036;DHT22;7615;48.574;13.474;2023-04-08T09:55:36;6.60;99.90
15036;DHT22;7615;48.574;13.474;2023-04-08T09:58:10;6.60;99.90
15036;DHT22;7615;48.574;13.474;2023-04-08T10:00:41;6.80;99.90
15036;DHT22;7615;48.574;13.474;2023-04-08T10:03:24;6.60;99.90
15036;DHT22;7615;48.574;13.474;2023-04-08T10:05:54;6.70;99.90
15036;DHT22;7615;48.574;13.474;2023-04-08T10:08:22;6.80;99.90
15036;DHT22;7615;48.574;13.474;2023-04-08T10:10:50;6.80;99.90
15036;DHT22;7615;48.574;13.474;2023-04-08T10:13:18;6.80;99.90
15036;DHT22;7615;48.574;13.474;2023-04-08T10:15:46;7.00;99.90
15036;DHT22;7615;48.574;13.474;2023-04-08T10:18:30;7.10;99.90
15036;DHT22;7615;48.574;13.474;2023-04-08T10:21:31;7.10;99.90
15036;DHT22;7615;48.574;13.474;2023-04-08T10:23:59;7.20;99.90
15036;DHT22;7615;48.574;13.474;2023-04-08T10:26:35;7.30;99.90
15036;DHT22;7615;48.574;13.474;2023-04-08T10:29:30;7.20;99.90
15036;DHT22;7615;48.574;13.474;2023-04-08T10:31:58;7.10;99.90
15036;DHT22;7615;48.574;13.474;2023-04-08T10:34:26;7.00;99.90
15036;DHT22;7615;48.574;13.474;2023-04-08T10:36:56;7.00;99.90
15036;DHT22;7615;48.574;13.474;2023-04-08T10:39:26;7.10;99.90
15036;DHT22;7615;48.574;13.474;2023-04-08T10:41:54;7.10;99.90
15036;DHT22;7615;48.574;13.474;2023-04-08T10:44:24;7.20;99.90
15036;DHT22;7615;48.574;13.474;2023-04-08T10:46:53;7.20;99.90
15036;DHT22;7615;48.574;13.474;2023-04-08T10:49:34;7.30;99.90
15036;DHT22;7615;48.574;13.474;2023-04-08T10:52:07;7.40;99.90
15036;DHT22;7615;48.574;13.474;2023-04-08T10:54:35;7.30;99.90
15036;DHT22;7615;48.574;13.474;2023-04-08T10:57:04;7.40;99.90
15036;DHT22;7615;48.574;13.474;2023-04-08T10:59:32;7.40;99.90
15036;DHT22;7615;48.574;13.474;2023-04-08T11:01:59;7.50;99.90
15036;DHT22;7615;48.574;13.474;2023-04-08T11:04:27;7.70;99.90
15036;DHT22;7615;48.574;13.474;2023-04-08T11:06:54;8.40;99.90
15036;DHT22;7615;48.574;13.474;2023-04-08T11:09:22;9.00;99.90
15036;DHT22;7615;48.574;13.474;2023-04-08T11:11:51;9.50;99.90
15036;DHT22;7615;48.574;13.474;2023-04-08T11:14:19;9.90;99.90
15036;DHT22;7615;48.574;13.474;2023-04-08T11:16:48;10.30;99.90
15036;DHT22;7615;48.574;13.474;2023-04-08T11:19:15;10.50;99.90
15036;DHT22;7615;48.574;13.474;2023-04-08T11:21:42;10.40;99.90
15036;DHT22;7615;48.574;13.474;2023-04-08T11:24:10;10.50;99.90
15036;DHT22;7615;48.574;13.474;2023-04-08T11:26:40;10.20;99.90
15036;DHT22;7615;48.574;13.474;2023-04-08T11:29:10;10.20;99.90
15036;DHT22;7615;48.574;13.474;2023-04-08T11:31:39;9.30;99.90
15036;DHT22;7615;48.574;13.474;2023-04-08T11:34:07;9.10;99.90
15036;DHT22;7615;48.574;13.474;2023-04-08T11:36:34;9.20;99.90
15036;DHT22;7615;48.574;13.474;2023-04-08T11:39:06;9.30;99.90
15036;DHT22;7615;48.574;13.474;2023-04-08T11:41:39;9.40;99.90
15036;DHT22;7615;48.574;13.474;2023-04-08T11:44:07;9.40;99.90
15036;DHT22;7615;48.574;13.474;2023-04-08T11:46:34;9.20;99.90
15036;DHT22;7615;48.574;13.474;2023-04-08T11:49:06;8.70;99.90
15036;DHT22;7615;48.574;13.474;2023-04-08T11:51:34;8.60;99.90
15036;DHT22;7615;48.574;13.474;2023-04-08T11:54:04;8.50;99.90
15036;DHT22;7615;48.574;13.474;2023-04-08T11:56:45;8.30;99.90
15036;DHT22;7615;48.574;13.474;2023-04-08T11:59:12;8.00;99.90
15036;DHT22;7615;48.574;13.474;2023-04-08T12:01:40;7.80;99.90
15036;DHT22;7615;48.574;13.474;2023-04-08T12:04:07;7.70;99.90
15036;DHT22;7615;48.574;13.474;2023-04-08T12:06:35;7.60;99.90
15036;DHT22;7615;48.574;13.474;2023-04-08T12:09:02;7.70;99.90
15036;DHT22;7615;48.574;13.474;2023-04-08T12:11:29;7.70;99.90
15036;DHT22;7615;48.574;13.474;2023-04-08T12:13:58;7.70;99.90
15036;DHT22;7615;48.574;13.474;2023-04-08T12:16:25;7.80;99.90
15036;DHT22;7615;48.574;13.474;2023-04-08T12:18:52;7.80;99.90
15036;DHT22;7615;48.574;13.474;2023-04-08T12:21:19;7.70;99.90
15036;DHT22;7615;48.574;13.474;2023-04-08T12:23:46;7.60;99.90
15036;DHT22;7615;48.574;13.474;2023-04-08T12:26:13;7.70;99.90
15036;DHT22;7615;48.574;13.474;2023-04-08T12:28:40;7.70;99.90
15036;DHT22;7615;48.574;13.474;2023-04-08T12:31:09;7.80;99.90
15036;DHT22;7615;48.574;13.474;2023-04-08T12:33:36;7.80;99.90
15036;DHT22;7615;48.574;13.474;2023-04-08T12:36:03;7.90;99.90
15036;DHT22;7615;48.574;13.474;2023-04-08T12:38:30;7.90;99.90
15036;DHT22;7615;48.574;13.474;2023-04-08T12:40:58;8.00;99.90
15036;DHT22;7615;48.574;13.474;2023-04-08T12:43:25;8.00;99.90
15036;DHT22;7615;48.574;13.474;2023-04-08T12:45:52;8.10;99.90
15036;DHT22;7615;48.574;13.474;2023-04-08T12:48:21;8.20;99.90
15036;DHT22;7615;48.574;13.474;2023-04-08T12:50:48;8.30;99.90
15036;DHT22;7615;48.574;13.474;2023-04-08T12:53:15;8.50;99.90
15036;DHT22;7615;48.574;13.474;2023-04-08T12:55:43;8.70;99.90
15036;DHT22;7615;48.574;13.474;2023-04-08T12:58:10;8.50;99.90
15036;DHT22;7615;48.574;13.474;2023-04-08T13:00:37;8.40;99.90
15036;DHT22;7615;48.574;13.474;2023-04-08T13:03:11;8.40;99.90
15036;DHT22;7615;48.574;13.474;2023-04-08T13:05:39;8.30;99.90
15036;DHT22;7615;48.574;13.474;2023-04-08T13:08:07;8.20;99.90
15036;DHT22;7615;48.574;13.474;2023-04-08T13:10:34;8.00;99.90
15036;DHT22;7615;48.574;13.474;2023-04-08T13:13:01;7.90;99.90
15036;DHT22;7615;48.574;13.474;2023-04-08T13:15:28;8.00;99.90
15036;DHT22;7615;48.574;13.474;2023-04-08T13:17:55;8.10;99.90
15036;DHT22;7615;48.574;13.474;2023-04-08T13:20:22;8.10;99.90
15036;DHT22;7615;48.574;13.474;2023-04-08T13:22:52;8.20;99.90
15036;DHT22;7615;48.574;13.474;2023-04-08T13:25:19;8.20;99.90
15036;DHT22;7615;48.574;13.474;2023-04-08T13:27:46;8.10;99.90
15036;DHT22;7615;48.574;13.474;2023-04-08T13:30:14;8.10;99.90
15036;DHT22;7615;48.574;13.474;2023-04-08T13:32:41;8.10;99.90
15036;DHT22;7615;48.574;13.474;2023-04-08T13:35:09;8.10;99.90
15036;DHT22;7615;48.574;13.474;2023-04-08T13:37:36;8.10;99.90
15036;DHT22;7615;48.574;13.474;2023-04-08T13:40:05;8.10;99.90
15036;DHT22;7615;48.574;13.474;2023-04-08T13:42:33;8.00;99.90
15036;DHT22;7615;48.574;13.474;2023-04-08T13:45:00;8.00;99.90
15036;DHT22;7615;48.574;13.474;2023-04-08T13:47:28;7.90;99.90
15036;DHT22;7615;48.574;13.474;2023-04-08T13:49:55;7.90;99.90
15036;DHT22;7615;48.574;13.474;2023-04-08T13:52:22;7.80;99.90
15036;DHT22;7615;48.574;13.474;2023-04-08T13:54:50;7.80;99.90
15036;DHT22;7615;48.574;13.474;2023-04-08T13:57:18;7.80;99.90
15036;DHT22;7615;48.574;13.474;2023-04-08T13:59:46;7.70;99.90
15036;DHT22;7615;48.574;13.474;2023-04-08T14:02:28;7.70;99.90
15036;DHT22;7615;48.574;13.474;2023-04-08T14:04:56;7.80;99.90
15036;DHT22;7615;48.574;13.474;2023-04-08T14:07:24;7.90;99.90
15036;DHT22;7615;48.574;13.474;2023-04-08T14:09:51;7.90;99.90
15036;DHT22;7615;48.574;13.474;2023-04-08T14:12:21;7.90;99.90
15036;DHT22;7615;48.574;13.474;2023-04-08T14:14:49;7.90;99.90
15036;DHT22;7615;48.574;13.474;2023-04-08T14:17:16;8.00;99.90
15036;DHT22;7615;48.574;13.474;2023-04-08T14:19:44;8.20;99.90
15036;DHT22;7615;48.574;13.474;2023-04-08T14:22:11;8.20;99.90
15036;DHT22;7615;48.574;13.474;2023-04-08T14:24:39;8.20;99.90
15036;DHT22;7615;48.574;13.474;2023-04-08T14:27:08;8.20;99.90
15036;DHT22;7615;48.574;13.474;2023-04-08T14:29:37;8.40;99.90
15036;DHT22;7615;48.574;13.474;2023-04-08T14:32:04;8.40;99.90
15036;DHT22;7615;48.574;13.474;2023-04-08T14:34:31;8.30;99.90
15036;DHT22;7615;48.574;13.474;2023-04-08T14:36:58;8.20;99.90
15036;DHT22;7615;48.574;13.474;2023-04-08T14:39:25;8.20;99.90
15036;DHT22;7615;48.574;13.474;2023-04-08T14:41:53;8.30;99.90
15036;DHT22;7615;48.574;13.474;2023-04-08T14:44:21;8.30;99.90
15036;DHT22;7615;48.574;13.474;2023-04-08T14:46:50;8.30;99.90
15036;DHT22;7615;48.574;13.474;2023-04-08T14:49:17;8.30;99.90
15036;DHT22;7615;48.574;13.474;2023-04-08T14:51:45;8.30;99.90
15036;DHT22;7615;48.574;13.474;2023-04-08T14:54:18;8.30;99.90
15036;DHT22;7615;48.574;13.474;2023-04-08T14:56:46;8.30;99.90
15036;DHT22;7615;48.574;13.474;2023-04-08T14:59:16;8.30;99.90
15036;DHT22;7615;48.574;13.474;2023-04-08T15:01:44;8.30;99.90
15036;DHT22;7615;48.574;13.474;2023-04-08T15:04:13;8.30;99.90
15036;DHT22;7615;48.574;13.474;2023-04-08T15:06:40;8.30;99.90
15036;DHT22;7615;48.574;13.474;2023-04-08T15:09:08;8.30;99.90
15036;DHT22;7615;48.574;13.474;2023-04-08T15:11:36;8.20;99.90
15036;DHT22;7615;48.574;13.474;2023-04-08T15:14:03;8.20;99.90
15036;DHT22;7615;48.574;13.474;2023-04-08T15:16:31;8.20;99.90
15036;DHT22;7615;48.574;13.474;2023-04-08T15:18:58;8.20;99.90
15036;DHT22;7615;48.574;13.474;2023-04-08T15:21:32;8.20;99.90
15036;DHT22;7615;48.574;13.474;2023-04-08T15:23:59;8.20;99.90
15036;DHT22;7615;48.574;13.474;2023-04-08T15:26:27;8.20;99.90
15036;DHT22;7615;48.574;13.474;2023-04-08T15:28:57;8.30;99.90
15036;DHT22;7615;48.574;13.474;2023-04-08T15:31:24;8.40;99.90
15036;DHT22;7615;48.574;13.474;2023-04-08T15:33:52;8.40;99.90
15036;DHT22;7615;48.574;13.474;2023-04-08T15:36:27;8.40;99.90
15036;DHT22;7615;48.574;13.474;2023-04-08T15:38:55;8.50;99.90
15036;DHT22;7615;48.574;13.474;2023-04-08T15:41:22;8.50;99.90
15036;DHT22;7615;48.574;13.474;2023-04-08T15:43:49;8.50;99.90
15036;DHT22;7615;48.574;13.474;2023-04-08T15:46:18;8.50;99.90
15036;DHT22;7615;48.574;13.474;2023-04-08T15:48:47;8.60;99.90
15036;DHT22;7615;48.574;13.474;2023-04-08T15:51:15;8.60;99.90
15036;DHT22;7615;48.574;13.474;2023-04-08T15:53:44;8.70;99.90
15036;DHT22;7615;48.574;13.474;2023-04-08T15:56:12;8.80;99.90